sensor_id;sensor_type;location;lat;lon;timestamp;P1;durP1;ratioP1;P2;durP2;ratioP2
12768;SDS011;6448;48.916;8.990;2023-06-22T00:00:58;3.00;;;2.80;;
12768;SDS011;6448;48.916;8.990;2023-06-22T00:02:00;3.20;;;2.90;;
12768;SDS011;6448;48.916;8.990;2023-06-22T00:03:02;3.30;;;3.00;;
12768;SDS011;6448;48.916;8.990;2023-06-22T00:04:03;3.20;;;2.90;;
12768;SDS011;6448;48.916;8.990;2023-06-22T00:05:05;3.10;;;2.90;;
12768;SDS011;6448;48.916;8.990;2023-06-22T00:06:06;2.80;;;2.60;;
12768;SDS011;6448;48.916;8.990;2023-06-22T00:07:08;2.78;;;2.58;;
12768;SDS011;6448;48.916;8.990;2023-06-22T00:08:09;3.00;;;2.80;;
12768;SDS011;6448;48.916;8.990;2023-06-22T00:09:11;2.88;;;2.67;;
12768;SDS011;6448;48.916;8.990;2023-06-22T00:10:12;2.80;;;2.60;;
12768;SDS011;6448;48.916;8.990;2023-06-22T00:11:14;3.00;;;2.80;;
12768;SDS011;6448;48.916;8.990;2023-06-22T00:12:15;3.20;;;2.90;;
12768;SDS011;6448;48.916;8.990;2023-06-22T00:13:18;3.30;;;3.08;;
12768;SDS011;6448;48.916;8.990;2023-06-22T00:14:19;3.50;;;3.20;;
12768;SDS011;6448;48.916;8.990;2023-06-22T00:15:20;3.67;;;3.38;;
12768;SDS011;6448;48.916;8.990;2023-06-22T00:16:21;3.30;;;3.00;;
12768;SDS011;6448;48.916;8.990;2023-06-22T00:17:23;3.75;;;3.35;;
12768;SDS011;6448;48.916;8.990;2023-06-22T00:18:24;3.70;;;3.40;;
12768;SDS011;6448;48.916;8.990;2023-06-22T00:19:28;3.83;;;3.50;;
12768;SDS011;6448;48.916;8.990;2023-06-22T00:20:28;3.70;;;3.40;;
12768;SDS011;6448;48.916;8.990;2023-06-22T00:21:30;3.80;;;3.40;;
12768;SDS011;6448;48.916;8.990;2023-06-22T00:22:31;3.78;;;3.47;;
12768;SDS011;6448;48.916;8.990;2023-06-22T00:23:38;4.32;;;3.30;;
12768;SDS011;6448;48.916;8.990;2023-06-22T00:24:39;3.55;;;3.25;;
12768;SDS011;6448;48.916;8.990;2023-06-22T00:25:41;3.60;;;3.30;;
12768;SDS011;6448;48.916;8.990;2023-06-22T00:26:42;3.17;;;2.97;;
12768;SDS011;6448;48.916;8.990;2023-06-22T00:27:45;3.30;;;3.10;;
12768;SDS011;6448;48.916;8.990;2023-06-22T00:29:26;3.03;;;2.83;;
12768;SDS011;6448;48.916;8.990;2023-06-22T00:30:30;3.20;;;3.00;;
12768;SDS011;6448;48.916;8.990;2023-06-22T00:31:32;3.20;;;2.90;;
12768;SDS011;6448;48.916;8.990;2023-06-22T00:32:34;3.13;;;2.90;;
12768;SDS011;6448;48.916;8.990;2023-06-22T00:33:35;2.70;;;2.50;;
12768;SDS011;6448;48.916;8.990;2023-06-22T00:34:39;3.30;;;3.00;;
12768;SDS011;6448;48.916;8.990;2023-06-22T00:35:40;3.13;;;2.92;;
12768;SDS011;6448;48.916;8.990;2023-06-22T00:36:42;3.30;;;3.00;;
12768;SDS011;6448;48.916;8.990;2023-06-22T00:37:43;3.20;;;3.00;;
12768;SDS011;6448;48.916;8.990;2023-06-22T00:38:45;3.20;;;3.00;;
12768;SDS011;6448;48.916;8.990;2023-06-22T00:39:46;3.50;;;3.20;;
12768;SDS011;6448;48.916;8.990;2023-06-22T00:40:48;3.30;;;3.00;;
12768;SDS011;6448;48.916;8.990;2023-06-22T00:41:49;3.78;;;3.47;;
12768;SDS011;6448;48.916;8.990;2023-06-22T00:42:50;3.60;;;3.30;;
12768;SDS011;6448;48.916;8.990;2023-06-22T00:43:51;4.13;;;3.72;;
12768;SDS011;6448;48.916;8.990;2023-06-22T00:44:54;3.88;;;3.58;;
12768;SDS011;6448;48.916;8.990;2023-06-22T00:45:55;3.80;;;3.50;;
12768;SDS011;6448;48.916;8.990;2023-06-22T00:46:57;3.50;;;3.20;;
12768;SDS011;6448;48.916;8.990;2023-06-22T00:48:00;4.22;;;3.90;;
12768;SDS011;6448;48.916;8.990;2023-06-22T00:49:03;4.13;;;3.83;;
12768;SDS011;6448;48.916;8.990;2023-06-22T00:50:05;3.90;;;3.60;;
12768;SDS011;6448;48.916;8.990;2023-06-22T00:51:10;4.20;;;3.90;;
12768;SDS011;6448;48.916;8.990;2023-06-22T00:52:12;4.43;;;4.03;;
12768;SDS011;6448;48.916;8.990;2023-06-22T00:53:21;4.55;;;4.13;;
12768;SDS011;6448;48.916;8.990;2023-06-22T00:54:23;4.40;;;4.00;;
12768;SDS011;6448;48.916;8.990;2023-06-22T00:55:25;4.55;;;4.15;;
12768;SDS011;6448;48.916;8.990;2023-06-22T00:56:28;4.43;;;3.80;;
12768;SDS011;6448;48.916;8.990;2023-06-22T00:57:30;3.90;;;3.60;;
12768;SDS011;6448;48.916;8.990;2023-06-22T00:58:32;4.05;;;3.75;;
12768;SDS011;6448;48.916;8.990;2023-06-22T00:59:32;3.70;;;3.40;;
12768;SDS011;6448;48.916;8.990;2023-06-22T01:00:38;3.92;;;3.63;;
12768;SDS011;6448;48.916;8.990;2023-06-22T01:01:39;3.40;;;3.20;;
12768;SDS011;6448;48.916;8.990;2023-06-22T01:02:41;3.80;;;3.50;;
12768;SDS011;6448;48.916;8.990;2023-06-22T01:03:44;3.72;;;3.42;;
12768;SDS011;6448;48.916;8.990;2023-06-22T01:04:46;4.43;;;3.50;;
12768;SDS011;6448;48.916;8.990;2023-06-22T01:05:47;4.03;;;3.60;;
12768;SDS011;6448;48.916;8.990;2023-06-22T01:06:53;3.85;;;3.55;;
12768;SDS011;6448;48.916;8.990;2023-06-22T01:08:02;3.67;;;3.38;;
12768;SDS011;6448;48.916;8.990;2023-06-22T01:09:08;3.83;;;3.42;;
12768;SDS011;6448;48.916;8.990;2023-06-22T01:10:21;4.05;;;3.50;;
12768;SDS011;6448;48.916;8.990;2023-06-22T01:11:30;4.43;;;3.55;;
12768;SDS011;6448;48.916;8.990;2023-06-22T01:12:38;3.70;;;3.40;;
12768;SDS011;6448;48.916;8.990;2023-06-22T01:13:45;3.42;;;3.13;;
12768;SDS011;6448;48.916;8.990;2023-06-22T01:14:53;3.80;;;3.50;;
12768;SDS011;6448;48.916;8.990;2023-06-22T01:16:02;4.03;;;3.63;;
12768;SDS011;6448;48.916;8.990;2023-06-22T01:17:08;3.83;;;3.53;;
12768;SDS011;6448;48.916;8.990;2023-06-22T01:18:30;3.58;;;3.28;;
12768;SDS011;6448;48.916;8.990;2023-06-22T01:19:35;3.03;;;2.80;;
12768;SDS011;6448;48.916;8.990;2023-06-22T01:20:42;3.50;;;3.20;;
12768;SDS011;6448;48.916;8.990;2023-06-22T01:21:44;3.50;;;3.20;;
12768;SDS011;6448;48.916;8.990;2023-06-22T01:22:49;3.78;;;3.47;;
12768;SDS011;6448;48.916;8.990;2023-06-22T01:24:08;3.85;;;3.55;;
12768;SDS011;6448;48.916;8.990;2023-06-22T01:25:20;4.53;;;3.60;;
12768;SDS011;6448;48.916;8.990;2023-06-22T01:26:27;4.03;;;3.72;;
12768;SDS011;6448;48.916;8.990;2023-06-22T01:27:39;4.57;;;4.18;;
12768;SDS011;6448;48.916;8.990;2023-06-22T01:28:49;4.47;;;4.07;;
12768;SDS011;6448;48.916;8.990;2023-06-22T01:29:55;4.28;;;3.88;;
12768;SDS011;6448;48.916;8.990;2023-06-22T01:31:00;4.30;;;3.90;;
12768;SDS011;6448;48.916;8.990;2023-06-22T01:32:05;4.57;;;4.18;;
12768;SDS011;6448;48.916;8.990;2023-06-22T01:33:09;4.05;;;3.60;;
12768;SDS011;6448;48.916;8.990;2023-06-22T01:34:12;4.23;;;3.93;;
12768;SDS011;6448;48.916;8.990;2023-06-22T01:35:14;4.20;;;3.90;;
12768;SDS011;6448;48.916;8.990;2023-06-22T01:36:17;3.90;;;3.60;;
12768;SDS011;6448;48.916;8.990;2023-06-22T01:37:20;3.90;;;3.60;;
12768;SDS011;6448;48.916;8.990;2023-06-22T01:38:25;4.10;;;3.55;;
12768;SDS011;6448;48.916;8.990;2023-06-22T01:39:28;4.70;;;3.58;;
12768;SDS011;6448;48.916;8.990;2023-06-22T01:40:31;4.07;;;3.60;;
12768;SDS011;6448;48.916;8.990;2023-06-22T01:41:34;3.80;;;3.40;;
12768;SDS011;6448;48.916;8.990;2023-06-22T01:42:38;3.90;;;3.60;;
12768;SDS011;6448;48.916;8.990;2023-06-22T01:43:41;4.55;;;4.00;;
12768;SDS011;6448;48.916;8.990;2023-06-22T01:44:45;4.10;;;3.70;;
12768;SDS011;6448;48.916;8.990;2023-06-22T01:45:46;3.80;;;3.50;;
12768;SDS011;6448;48.916;8.990;2023-06-22T01:46:48;4.20;;;3.80;;
12768;SDS011;6448;48.916;8.990;2023-06-22T01:47:51;3.67;;;3.43;;
12768;SDS011;6448;48.916;8.990;2023-06-22T01:48:52;3.13;;;2.93;;
12768;SDS011;6448;48.916;8.990;2023-06-22T01:49:56;3.70;;;3.30;;
12768;SDS011;6448;48.916;8.990;2023-06-22T01:50:57;3.60;;;3.30;;
12768;SDS011;6448;48.916;8.990;2023-06-22T01:51:59;3.80;;;3.50;;
12768;SDS011;6448;48.916;8.990;2023-06-22T01:53:02;4.03;;;3.60;;
12768;SDS011;6448;48.916;8.990;2023-06-22T01:54:06;3.50;;;3.20;;
12768;SDS011;6448;48.916;8.990;2023-06-22T01:55:08;3.47;;;3.17;;
12768;SDS011;6448;48.916;8.990;2023-06-22T01:56:10;3.55;;;3.25;;
12768;SDS011;6448;48.916;8.990;2023-06-22T01:57:11;3.45;;;3.13;;
12768;SDS011;6448;48.916;8.990;2023-06-22T01:58:13;3.08;;;2.88;;
12768;SDS011;6448;48.916;8.990;2023-06-22T01:59:16;4.07;;;3.50;;
12768;SDS011;6448;48.916;8.990;2023-06-22T02:00:25;4.00;;;3.60;;
12768;SDS011;6448;48.916;8.990;2023-06-22T02:01:31;3.78;;;3.40;;
12768;SDS011;6448;48.916;8.990;2023-06-22T02:02:42;4.70;;;3.65;;
12768;SDS011;6448;48.916;8.990;2023-06-22T02:03:47;3.70;;;3.40;;
12768;SDS011;6448;48.916;8.990;2023-06-22T02:04:54;3.45;;;3.15;;
12768;SDS011;6448;48.916;8.990;2023-06-22T02:06:01;5.13;;;3.75;;
12768;SDS011;6448;48.916;8.990;2023-06-22T02:07:08;4.15;;;3.50;;
12768;SDS011;6448;48.916;8.990;2023-06-22T02:08:15;3.83;;;3.05;;
12768;SDS011;6448;48.916;8.990;2023-06-22T02:09:21;3.75;;;3.45;;
12768;SDS011;6448;48.916;8.990;2023-06-22T02:10:23;3.42;;;3.22;;
12768;SDS011;6448;48.916;8.990;2023-06-22T02:11:26;3.70;;;3.40;;
12768;SDS011;6448;48.916;8.990;2023-06-22T02:12:29;3.57;;;3.10;;
12768;SDS011;6448;48.916;8.990;2023-06-22T02:13:33;4.37;;;3.73;;
12768;SDS011;6448;48.916;8.990;2023-06-22T02:14:36;3.88;;;3.47;;
12768;SDS011;6448;48.916;8.990;2023-06-22T02:15:40;3.80;;;3.13;;
12768;SDS011;6448;48.916;8.990;2023-06-22T02:16:41;3.67;;;3.13;;
12768;SDS011;6448;48.916;8.990;2023-06-22T02:17:43;3.75;;;3.15;;
12768;SDS011;6448;48.916;8.990;2023-06-22T02:18:46;4.00;;;3.60;;
12768;SDS011;6448;48.916;8.990;2023-06-22T02:19:47;3.78;;;3.40;;
12768;SDS011;6448;48.916;8.990;2023-06-22T02:20:48;4.25;;;3.30;;
12768;SDS011;6448;48.916;8.990;2023-06-22T02:21:50;3.10;;;2.80;;
12768;SDS011;6448;48.916;8.990;2023-06-22T02:22:51;4.65;;;3.50;;
12768;SDS011;6448;48.916;8.990;2023-06-22T02:23:53;5.03;;;3.47;;
12768;SDS011;6448;48.916;8.990;2023-06-22T02:24:53;4.67;;;3.60;;
12768;SDS011;6448;48.916;8.990;2023-06-22T02:25:56;3.80;;;3.40;;
12768;SDS011;6448;48.916;8.990;2023-06-22T02:26:58;3.95;;;3.05;;
12768;SDS011;6448;48.916;8.990;2023-06-22T02:28:02;5.32;;;3.70;;
12768;SDS011;6448;48.916;8.990;2023-06-22T02:29:03;3.90;;;3.50;;
12768;SDS011;6448;48.916;8.990;2023-06-22T02:30:05;4.07;;;3.67;;
12768;SDS011;6448;48.916;8.990;2023-06-22T02:31:08;3.97;;;3.58;;
12768;SDS011;6448;48.916;8.990;2023-06-22T02:32:10;5.00;;;3.78;;
12768;SDS011;6448;48.916;8.990;2023-06-22T02:33:12;4.25;;;3.85;;
12768;SDS011;6448;48.916;8.990;2023-06-22T02:34:14;4.07;;;3.40;;
12768;SDS011;6448;48.916;8.990;2023-06-22T02:35:18;3.58;;;3.28;;
12768;SDS011;6448;48.916;8.990;2023-06-22T02:36:20;4.07;;;3.60;;
12768;SDS011;6448;48.916;8.990;2023-06-22T02:37:22;3.95;;;3.63;;
12768;SDS011;6448;48.916;8.990;2023-06-22T02:38:25;4.00;;;3.60;;
12768;SDS011;6448;48.916;8.990;2023-06-22T02:39:26;3.80;;;3.40;;
12768;SDS011;6448;48.916;8.990;2023-06-22T02:40:28;3.67;;;3.38;;
12768;SDS011;6448;48.916;8.990;2023-06-22T02:41:30;3.17;;;2.97;;
12768;SDS011;6448;48.916;8.990;2023-06-22T02:42:32;3.40;;;3.10;;
12768;SDS011;6448;48.916;8.990;2023-06-22T02:43:33;3.77;;;3.47;;
12768;SDS011;6448;48.916;8.990;2023-06-22T02:44:34;4.07;;;3.67;;
12768;SDS011;6448;48.916;8.990;2023-06-22T02:45:35;3.63;;;3.30;;
12768;SDS011;6448;48.916;8.990;2023-06-22T02:46:39;3.80;;;3.50;;
12768;SDS011;6448;48.916;8.990;2023-06-22T02:47:40;4.15;;;3.80;;
12768;SDS011;6448;48.916;8.990;2023-06-22T02:48:41;3.95;;;3.65;;
12768;SDS011;6448;48.916;8.990;2023-06-22T02:49:42;3.92;;;3.60;;
12768;SDS011;6448;48.916;8.990;2023-06-22T02:50:45;4.57;;;3.63;;
12768;SDS011;6448;48.916;8.990;2023-06-22T02:51:46;4.07;;;3.77;;
12768;SDS011;6448;48.916;8.990;2023-06-22T02:52:52;4.13;;;3.83;;
12768;SDS011;6448;48.916;8.990;2023-06-22T02:53:53;4.30;;;3.90;;
12768;SDS011;6448;48.916;8.990;2023-06-22T02:54:58;4.13;;;3.72;;
12768;SDS011;6448;48.916;8.990;2023-06-22T02:56:00;3.50;;;3.20;;
12768;SDS011;6448;48.916;8.990;2023-06-22T02:57:06;3.80;;;3.50;;
12768;SDS011;6448;48.916;8.990;2023-06-22T02:58:07;3.50;;;3.20;;
12768;SDS011;6448;48.916;8.990;2023-06-22T02:59:11;3.03;;;2.83;;
12768;SDS011;6448;48.916;8.990;2023-06-22T03:00:13;3.60;;;3.30;;
12768;SDS011;6448;48.916;8.990;2023-06-22T03:01:19;4.50;;;3.70;;
12768;SDS011;6448;48.916;8.990;2023-06-22T03:02:25;3.07;;;2.87;;
12768;SDS011;6448;48.916;8.990;2023-06-22T03:03:28;3.42;;;3.13;;
12768;SDS011;6448;48.916;8.990;2023-06-22T03:04:28;4.10;;;3.17;;
12768;SDS011;6448;48.916;8.990;2023-06-22T03:05:31;4.30;;;3.33;;
12768;SDS011;6448;48.916;8.990;2023-06-22T03:06:33;3.55;;;2.90;;
12768;SDS011;6448;48.916;8.990;2023-06-22T03:07:35;3.85;;;3.50;;
12768;SDS011;6448;48.916;8.990;2023-06-22T03:08:37;5.18;;;4.28;;
12768;SDS011;6448;48.916;8.990;2023-06-22T03:09:39;9.73;;;7.40;;
12768;SDS011;6448;48.916;8.990;2023-06-22T03:10:42;8.18;;;7.47;;
12768;SDS011;6448;48.916;8.990;2023-06-22T03:11:43;7.55;;;6.75;;
12768;SDS011;6448;48.916;8.990;2023-06-22T03:12:44;6.70;;;5.65;;
12768;SDS011;6448;48.916;8.990;2023-06-22T03:13:47;7.85;;;6.30;;
12768;SDS011;6448;48.916;8.990;2023-06-22T03:14:48;5.75;;;5.07;;
12768;SDS011;6448;48.916;8.990;2023-06-22T03:15:49;5.35;;;4.70;;
12768;SDS011;6448;48.916;8.990;2023-06-22T03:16:50;5.13;;;4.10;;
12768;SDS011;6448;48.916;8.990;2023-06-22T03:17:54;6.43;;;4.07;;
12768;SDS011;6448;48.916;8.990;2023-06-22T03:18:57;3.65;;;3.35;;
12768;SDS011;6448;48.916;8.990;2023-06-22T03:19:59;4.18;;;3.22;;
12768;SDS011;6448;48.916;8.990;2023-06-22T03:20:59;3.88;;;3.20;;
12768;SDS011;6448;48.916;8.990;2023-06-22T03:22:02;4.28;;;3.20;;
12768;SDS011;6448;48.916;8.990;2023-06-22T03:23:03;4.55;;;3.38;;
12768;SDS011;6448;48.916;8.990;2023-06-22T03:24:07;3.97;;;3.40;;
12768;SDS011;6448;48.916;8.990;2023-06-22T03:25:08;4.10;;;3.70;;
12768;SDS011;6448;48.916;8.990;2023-06-22T03:26:16;3.92;;;3.40;;
12768;SDS011;6448;48.916;8.990;2023-06-22T03:27:17;4.38;;;3.45;;
12768;SDS011;6448;48.916;8.990;2023-06-22T03:28:19;3.78;;;3.47;;
12768;SDS011;6448;48.916;8.990;2023-06-22T03:29:20;3.42;;;3.13;;
12768;SDS011;6448;48.916;8.990;2023-06-22T03:30:21;4.30;;;3.10;;
12768;SDS011;6448;48.916;8.990;2023-06-22T03:31:22;3.72;;;3.38;;
12768;SDS011;6448;48.916;8.990;2023-06-22T03:32:24;4.05;;;3.50;;
12768;SDS011;6448;48.916;8.990;2023-06-22T03:33:29;3.95;;;3.20;;
12768;SDS011;6448;48.916;8.990;2023-06-22T03:34:32;3.63;;;3.30;;
12768;SDS011;6448;48.916;8.990;2023-06-22T03:35:34;3.60;;;3.30;;
12768;SDS011;6448;48.916;8.990;2023-06-22T03:36:36;4.50;;;3.58;;
12768;SDS011;6448;48.916;8.990;2023-06-22T03:37:37;3.70;;;3.40;;
12768;SDS011;6448;48.916;8.990;2023-06-22T03:38:39;4.10;;;3.60;;
12768;SDS011;6448;48.916;8.990;2023-06-22T03:39:42;3.67;;;3.38;;
12768;SDS011;6448;48.916;8.990;2023-06-22T03:40:43;3.90;;;3.47;;
12768;SDS011;6448;48.916;8.990;2023-06-22T03:41:45;4.13;;;3.83;;
12768;SDS011;6448;48.916;8.990;2023-06-22T03:42:46;4.43;;;4.03;;
12768;SDS011;6448;48.916;8.990;2023-06-22T03:43:48;5.17;;;4.67;;
12768;SDS011;6448;48.916;8.990;2023-06-22T03:44:49;4.25;;;3.95;;
12768;SDS011;6448;48.916;8.990;2023-06-22T03:45:51;5.80;;;5.30;;
12768;SDS011;6448;48.916;8.990;2023-06-22T03:46:51;6.07;;;5.47;;
12768;SDS011;6448;48.916;8.990;2023-06-22T03:47:53;6.00;;;5.18;;
12768;SDS011;6448;48.916;8.990;2023-06-22T03:48:55;5.00;;;4.50;;
12768;SDS011;6448;48.916;8.990;2023-06-22T03:49:58;7.97;;;4.22;;
12768;SDS011;6448;48.916;8.990;2023-06-22T03:50:58;6.65;;;3.75;;
12768;SDS011;6448;48.916;8.990;2023-06-22T03:52:01;4.80;;;3.63;;
12768;SDS011;6448;48.916;8.990;2023-06-22T03:53:02;4.43;;;3.40;;
12768;SDS011;6448;48.916;8.990;2023-06-22T03:54:04;6.57;;;4.13;;
12768;SDS011;6448;48.916;8.990;2023-06-22T03:55:05;4.37;;;3.90;;
12768;SDS011;6448;48.916;8.990;2023-06-22T03:56:08;4.10;;;3.63;;
12768;SDS011;6448;48.916;8.990;2023-06-22T03:57:08;4.67;;;3.67;;
12768;SDS011;6448;48.916;8.990;2023-06-22T03:58:11;5.30;;;3.88;;
12768;SDS011;6448;48.916;8.990;2023-06-22T03:59:12;4.63;;;3.90;;
12768;SDS011;6448;48.916;8.990;2023-06-22T04:00:14;4.47;;;3.67;;
12768;SDS011;6448;48.916;8.990;2023-06-22T04:01:16;7.35;;;3.95;;
12768;SDS011;6448;48.916;8.990;2023-06-22T04:02:18;5.15;;;3.90;;
12768;SDS011;6448;48.916;8.990;2023-06-22T04:03:19;3.88;;;3.50;;
12768;SDS011;6448;48.916;8.990;2023-06-22T04:04:22;4.68;;;3.70;;
12768;SDS011;6448;48.916;8.990;2023-06-22T04:05:23;3.38;;;3.08;;
12768;SDS011;6448;48.916;8.990;2023-06-22T04:06:25;3.28;;;2.97;;
12768;SDS011;6448;48.916;8.990;2023-06-22T04:07:26;3.53;;;3.10;;
12768;SDS011;6448;48.916;8.990;2023-06-22T04:08:28;3.97;;;3.60;;
12768;SDS011;6448;48.916;8.990;2023-06-22T04:09:28;4.43;;;3.60;;
12768;SDS011;6448;48.916;8.990;2023-06-22T04:10:30;5.05;;;3.40;;
12768;SDS011;6448;48.916;8.990;2023-06-22T04:11:31;4.88;;;3.55;;
12768;SDS011;6448;48.916;8.990;2023-06-22T04:12:33;5.57;;;3.60;;
12768;SDS011;6448;48.916;8.990;2023-06-22T04:13:34;5.72;;;3.72;;
12768;SDS011;6448;48.916;8.990;2023-06-22T04:14:36;4.63;;;3.67;;
12768;SDS011;6448;48.916;8.990;2023-06-22T04:15:36;4.25;;;3.28;;
12768;SDS011;6448;48.916;8.990;2023-06-22T04:16:38;4.90;;;3.50;;
12768;SDS011;6448;48.916;8.990;2023-06-22T04:17:39;4.32;;;3.80;;
12768;SDS011;6448;48.916;8.990;2023-06-22T04:18:41;4.88;;;3.67;;
12768;SDS011;6448;48.916;8.990;2023-06-22T04:19:43;4.28;;;3.88;;
12768;SDS011;6448;48.916;8.990;2023-06-22T04:20:45;4.78;;;4.38;;
12768;SDS011;6448;48.916;8.990;2023-06-22T04:21:47;5.00;;;4.60;;
12768;SDS011;6448;48.916;8.990;2023-06-22T04:22:49;4.70;;;4.30;;
12768;SDS011;6448;48.916;8.990;2023-06-22T04:23:50;4.60;;;4.20;;
12768;SDS011;6448;48.916;8.990;2023-06-22T04:24:52;4.40;;;4.00;;
12768;SDS011;6448;48.916;8.990;2023-06-22T04:25:53;4.70;;;4.20;;
12768;SDS011;6448;48.916;8.990;2023-06-22T04:26:56;4.30;;;4.00;;
12768;SDS011;6448;48.916;8.990;2023-06-22T04:27:57;4.47;;;4.07;;
12768;SDS011;6448;48.916;8.990;2023-06-22T04:28:59;4.18;;;3.88;;
12768;SDS011;6448;48.916;8.990;2023-06-22T04:29:59;4.43;;;4.03;;
12768;SDS011;6448;48.916;8.990;2023-06-22T04:31:01;4.18;;;3.78;;
12768;SDS011;6448;48.916;8.990;2023-06-22T04:32:02;4.50;;;4.10;;
12768;SDS011;6448;48.916;8.990;2023-06-22T04:33:06;4.28;;;3.88;;
12768;SDS011;6448;48.916;8.990;2023-06-22T04:34:07;4.40;;;4.10;;
12768;SDS011;6448;48.916;8.990;2023-06-22T04:35:10;4.30;;;4.00;;
12768;SDS011;6448;48.916;8.990;2023-06-22T04:36:11;5.30;;;4.00;;
12768;SDS011;6448;48.916;8.990;2023-06-22T04:37:13;4.35;;;3.95;;
12768;SDS011;6448;48.916;8.990;2023-06-22T04:38:15;4.45;;;4.07;;
12768;SDS011;6448;48.916;8.990;2023-06-22T04:39:17;4.75;;;4.35;;
12768;SDS011;6448;48.916;8.990;2023-06-22T04:40:19;5.18;;;4.68;;
12768;SDS011;6448;48.916;8.990;2023-06-22T04:41:21;4.97;;;4.57;;
12768;SDS011;6448;48.916;8.990;2023-06-22T04:42:24;4.70;;;4.30;;
12768;SDS011;6448;48.916;8.990;2023-06-22T04:43:27;5.25;;;4.57;;
12768;SDS011;6448;48.916;8.990;2023-06-22T04:44:30;5.13;;;4.72;;
12768;SDS011;6448;48.916;8.990;2023-06-22T04:45:32;5.22;;;4.72;;
12768;SDS011;6448;48.916;8.990;2023-06-22T04:46:32;5.88;;;5.28;;
12768;SDS011;6448;48.916;8.990;2023-06-22T04:47:38;4.90;;;4.40;;
12768;SDS011;6448;48.916;8.990;2023-06-22T04:48:39;6.30;;;4.95;;
12768;SDS011;6448;48.916;8.990;2023-06-22T04:49:40;5.38;;;4.70;;
12768;SDS011;6448;48.916;8.990;2023-06-22T04:50:44;5.00;;;4.50;;
12768;SDS011;6448;48.916;8.990;2023-06-22T04:51:46;5.63;;;4.55;;
12768;SDS011;6448;48.916;8.990;2023-06-22T04:52:47;5.30;;;4.80;;
12768;SDS011;6448;48.916;8.990;2023-06-22T04:53:49;4.28;;;3.97;;
12768;SDS011;6448;48.916;8.990;2023-06-22T04:54:50;4.83;;;4.43;;
12768;SDS011;6448;48.916;8.990;2023-06-22T04:55:55;4.57;;;4.18;;
12768;SDS011;6448;48.916;8.990;2023-06-22T04:56:56;4.97;;;4.47;;
12768;SDS011;6448;48.916;8.990;2023-06-22T04:57:58;4.15;;;3.85;;
12768;SDS011;6448;48.916;8.990;2023-06-22T04:59:04;4.43;;;4.03;;
12768;SDS011;6448;48.916;8.990;2023-06-22T05:00:06;4.40;;;4.10;;
12768;SDS011;6448;48.916;8.990;2023-06-22T05:01:12;3.97;;;3.63;;
12768;SDS011;6448;48.916;8.990;2023-06-22T05:02:13;4.35;;;3.95;;
12768;SDS011;6448;48.916;8.990;2023-06-22T05:03:15;3.92;;;3.63;;
12768;SDS011;6448;48.916;8.990;2023-06-22T05:04:18;4.55;;;4.15;;
12768;SDS011;6448;48.916;8.990;2023-06-22T05:05:20;4.77;;;4.00;;
12768;SDS011;6448;48.916;8.990;2023-06-22T05:06:23;4.37;;;3.97;;
12768;SDS011;6448;48.916;8.990;2023-06-22T05:07:24;4.10;;;3.80;;
12768;SDS011;6448;48.916;8.990;2023-06-22T05:08:26;4.57;;;4.18;;
12768;SDS011;6448;48.916;8.990;2023-06-22T05:09:28;4.53;;;4.07;;
12768;SDS011;6448;48.916;8.990;2023-06-22T05:10:31;4.20;;;3.90;;
12768;SDS011;6448;48.916;8.990;2023-06-22T05:11:32;3.92;;;3.63;;
12768;SDS011;6448;48.916;8.990;2023-06-22T05:12:33;4.10;;;3.70;;
12768;SDS011;6448;48.916;8.990;2023-06-22T05:13:35;4.13;;;3.60;;
12768;SDS011;6448;48.916;8.990;2023-06-22T05:14:36;3.95;;;3.65;;
12768;SDS011;6448;48.916;8.990;2023-06-22T05:15:38;4.30;;;3.90;;
12768;SDS011;6448;48.916;8.990;2023-06-22T05:16:40;3.88;;;3.58;;
12768;SDS011;6448;48.916;8.990;2023-06-22T05:17:43;4.00;;;3.70;;
12768;SDS011;6448;48.916;8.990;2023-06-22T05:18:46;4.17;;;3.80;;
12768;SDS011;6448;48.916;8.990;2023-06-22T05:19:46;4.30;;;3.90;;
12768;SDS011;6448;48.916;8.990;2023-06-22T05:20:49;4.43;;;4.03;;
12768;SDS011;6448;48.916;8.990;2023-06-22T05:21:51;4.60;;;4.20;;
12768;SDS011;6448;48.916;8.990;2023-06-22T05:22:53;4.25;;;3.90;;
12768;SDS011;6448;48.916;8.990;2023-06-22T05:23:53;4.72;;;4.22;;
12768;SDS011;6448;48.916;8.990;2023-06-22T05:24:56;4.65;;;4.25;;
12768;SDS011;6448;48.916;8.990;2023-06-22T05:25:57;4.45;;;4.15;;
12768;SDS011;6448;48.916;8.990;2023-06-22T05:26:58;4.50;;;4.10;;
12768;SDS011;6448;48.916;8.990;2023-06-22T05:28:00;4.18;;;3.88;;
12768;SDS011;6448;48.916;8.990;2023-06-22T05:29:05;4.60;;;4.03;;
12768;SDS011;6448;48.916;8.990;2023-06-22T05:30:08;4.47;;;4.18;;
12768;SDS011;6448;48.916;8.990;2023-06-22T05:31:09;4.25;;;3.95;;
12768;SDS011;6448;48.916;8.990;2023-06-22T05:32:11;4.45;;;4.15;;
12768;SDS011;6448;48.916;8.990;2023-06-22T05:33:12;4.38;;;3.97;;
12768;SDS011;6448;48.916;8.990;2023-06-22T05:34:13;5.10;;;4.60;;
12768;SDS011;6448;48.916;8.990;2023-06-22T05:35:15;5.72;;;4.90;;
12768;SDS011;6448;48.916;8.990;2023-06-22T05:36:16;5.70;;;5.30;;
12768;SDS011;6448;48.916;8.990;2023-06-22T05:37:21;5.10;;;4.70;;
12768;SDS011;6448;48.916;8.990;2023-06-22T05:38:22;5.00;;;4.60;;
12768;SDS011;6448;48.916;8.990;2023-06-22T05:39:24;5.22;;;4.75;;
12768;SDS011;6448;48.916;8.990;2023-06-22T05:40:25;5.50;;;4.90;;
12768;SDS011;6448;48.916;8.990;2023-06-22T05:41:27;5.05;;;4.65;;
12768;SDS011;6448;48.916;8.990;2023-06-22T05:42:28;4.90;;;4.50;;
12768;SDS011;6448;48.916;8.990;2023-06-22T05:43:31;4.80;;;4.40;;
12768;SDS011;6448;48.916;8.990;2023-06-22T05:44:32;5.15;;;4.75;;
12768;SDS011;6448;48.916;8.990;2023-06-22T05:45:34;5.00;;;4.60;;
12768;SDS011;6448;48.916;8.990;2023-06-22T05:46:35;5.03;;;4.60;;
12768;SDS011;6448;48.916;8.990;2023-06-22T05:47:37;4.90;;;4.50;;
12768;SDS011;6448;48.916;8.990;2023-06-22T05:48:38;5.10;;;4.70;;
12768;SDS011;6448;48.916;8.990;2023-06-22T05:49:40;5.00;;;4.50;;
12768;SDS011;6448;48.916;8.990;2023-06-22T05:50:41;4.68;;;4.28;;
12768;SDS011;6448;48.916;8.990;2023-06-22T05:51:43;5.10;;;4.70;;
12768;SDS011;6448;48.916;8.990;2023-06-22T05:52:45;4.90;;;4.50;;
12768;SDS011;6448;48.916;8.990;2023-06-22T05:53:47;5.30;;;4.83;;
12768;SDS011;6448;48.916;8.990;2023-06-22T05:54:49;5.22;;;4.82;;
12768;SDS011;6448;48.916;8.990;2023-06-22T05:55:51;4.60;;;4.25;;
12768;SDS011;6448;48.916;8.990;2023-06-22T05:56:52;4.82;;;4.40;;
12768;SDS011;6448;48.916;8.990;2023-06-22T05:57:54;4.68;;;4.32;;
12768;SDS011;6448;48.916;8.990;2023-06-22T05:58:56;4.80;;;4.40;;
12768;SDS011;6448;48.916;8.990;2023-06-22T05:59:57;4.32;;;4.00;;
12768;SDS011;6448;48.916;8.990;2023-06-22T06:00:58;4.90;;;4.50;;
12768;SDS011;6448;48.916;8.990;2023-06-22T06:02:03;4.80;;;4.40;;
12768;SDS011;6448;48.916;8.990;2023-06-22T06:03:05;4.60;;;4.20;;
12768;SDS011;6448;48.916;8.990;2023-06-22T06:04:06;4.45;;;4.10;;
12768;SDS011;6448;48.916;8.990;2023-06-22T06:05:09;4.70;;;4.30;;
12768;SDS011;6448;48.916;8.990;2023-06-22T06:06:11;4.70;;;4.30;;
12768;SDS011;6448;48.916;8.990;2023-06-22T06:07:13;4.38;;;3.97;;
12768;SDS011;6448;48.916;8.990;2023-06-22T06:08:15;5.00;;;4.60;;
12768;SDS011;6448;48.916;8.990;2023-06-22T06:09:18;4.80;;;4.40;;
12768;SDS011;6448;48.916;8.990;2023-06-22T06:10:19;5.07;;;4.57;;
12768;SDS011;6448;48.916;8.990;2023-06-22T06:11:21;5.00;;;4.60;;
12768;SDS011;6448;48.916;8.990;2023-06-22T06:12:22;5.20;;;4.70;;
12768;SDS011;6448;48.916;8.990;2023-06-22T06:13:25;4.90;;;4.50;;
12768;SDS011;6448;48.916;8.990;2023-06-22T06:14:26;4.97;;;4.57;;
12768;SDS011;6448;48.916;8.990;2023-06-22T06:15:28;4.80;;;4.40;;
12768;SDS011;6448;48.916;8.990;2023-06-22T06:16:30;4.97;;;4.55;;
12768;SDS011;6448;48.916;8.990;2023-06-22T06:17:32;4.25;;;3.92;;
12768;SDS011;6448;48.916;8.990;2023-06-22T06:18:33;4.90;;;4.50;;
12768;SDS011;6448;48.916;8.990;2023-06-22T06:19:34;5.07;;;4.67;;
12768;SDS011;6448;48.916;8.990;2023-06-22T06:20:36;4.78;;;4.38;;
12768;SDS011;6448;48.916;8.990;2023-06-22T06:21:38;4.85;;;4.45;;
12768;SDS011;6448;48.916;8.990;2023-06-22T06:22:39;5.35;;;4.90;;
12768;SDS011;6448;48.916;8.990;2023-06-22T06:23:42;5.22;;;4.82;;